Country
Station

 

Weather  for  Bangassou  -  Central African Republic    Central African Republic

  
23 °C (73 °F)
    
 
 

Current METAR for Bangassou is :

FEFG 020000Z 00000KT 7000 FEW013 23/23 Q1012 NOSIG

 

This is a report for Bangassou - Central African Republic.
 
The report was made 514 hours and 28 minutes ago, at 00:00 UTC .
The wind was calm.
 
The temperature was 23 °C (73 °F), with a dew-point at 23 °C (73 °F).
The temperature felt like 20 °C (68 °F).
 
The atmospheric pressure was 1012 hPa (29.88 inHg).
The relative humidity was 100.0%.
 
There were a few clouds at a height of 396 meters (1300 feet).
 
The overall visibility was 7.0 kilometers (4.3 miles).
 

 
 
 
 

Country :   A   B   C   D   E   F   G   H   I   J   K   L   M   N   O   P   Q   R   S   T   U   V   W   Y   Z

 

Site Info  |  Disclaimer  |  Credits  |  Privacy
Contact us  |  Add to favorites
© 2013-2018 METARs - All rights reserved